sensor_id;sensor_type;location;lat;lon;timestamp;temperature;humidity
42743;DHT22;28397;44.552;-0.848;2023-07-29T00:01:35;22.90;99.90
42743;DHT22;28397;44.552;-0.848;2023-07-29T00:04:01;22.90;99.90
42743;DHT22;28397;44.552;-0.848;2023-07-29T00:06:27;23.00;99.90
42743;DHT22;28397;44.552;-0.848;2023-07-29T00:08:53;23.00;99.90
42743;DHT22;28397;44.552;-0.848;2023-07-29T00:11:18;23.00;99.90
42743;DHT22;28397;44.552;-0.848;2023-07-29T00:13:44;23.00;99.90
42743;DHT22;28397;44.552;-0.848;2023-07-29T00:16:10;23.00;99.90
42743;DHT22;28397;44.552;-0.848;2023-07-29T00:18:36;23.00;99.90
42743;DHT22;28397;44.552;-0.848;2023-07-29T00:21:01;22.90;99.90
42743;DHT22;28397;44.552;-0.848;2023-07-29T00:23:27;22.80;99.90
42743;DHT22;28397;44.552;-0.848;2023-07-29T00:25:53;22.80;99.90
42743;DHT22;28397;44.552;-0.848;2023-07-29T00:28:19;22.60;99.90
42743;DHT22;28397;44.552;-0.848;2023-07-29T00:30:44;22.40;99.90
42743;DHT22;28397;44.552;-0.848;2023-07-29T00:33:10;22.30;99.90
42743;DHT22;28397;44.552;-0.848;2023-07-29T00:35:36;22.20;99.90
42743;DHT22;28397;44.552;-0.848;2023-07-29T00:38:01;22.20;99.90
42743;DHT22;28397;44.552;-0.848;2023-07-29T00:40:28;22.10;99.90
42743;DHT22;28397;44.552;-0.848;2023-07-29T00:42:54;22.00;99.90
42743;DHT22;28397;44.552;-0.848;2023-07-29T00:45:20;22.00;99.90
42743;DHT22;28397;44.552;-0.848;2023-07-29T00:47:46;22.00;99.90
42743;DHT22;28397;44.552;-0.848;2023-07-29T00:50:13;22.00;99.90
42743;DHT22;28397;44.552;-0.848;2023-07-29T00:52:39;21.90;99.90
42743;DHT22;28397;44.552;-0.848;2023-07-29T00:55:06;21.90;99.90
42743;DHT22;28397;44.552;-0.848;2023-07-29T00:57:33;21.90;99.90
42743;DHT22;28397;44.552;-0.848;2023-07-29T00:59:59;21.90;99.90
42743;DHT22;28397;44.552;-0.848;2023-07-29T01:02:26;21.80;99.90
42743;DHT22;28397;44.552;-0.848;2023-07-29T01:04:56;21.80;99.90
42743;DHT22;28397;44.552;-0.848;2023-07-29T01:13:17;22.00;99.90
42743;DHT22;28397;44.552;-0.848;2023-07-29T01:16:05;22.10;99.90
42743;DHT22;28397;44.552;-0.848;2023-07-29T01:18:36;22.20;99.90
42743;DHT22;28397;44.552;-0.848;2023-07-29T01:21:07;22.30;99.90
42743;DHT22;28397;44.552;-0.848;2023-07-29T01:23:36;22.40;99.90
42743;DHT22;28397;44.552;-0.848;2023-07-29T01:26:03;22.40;99.90
42743;DHT22;28397;44.552;-0.848;2023-07-29T01:28:29;22.40;99.90
42743;DHT22;28397;44.552;-0.848;2023-07-29T01:31:06;22.50;99.90
42743;DHT22;28397;44.552;-0.848;2023-07-29T01:33:42;22.40;99.90
42743;DHT22;28397;44.552;-0.848;2023-07-29T01:36:18;22.40;99.90
42743;DHT22;28397;44.552;-0.848;2023-07-29T01:38:44;22.40;99.90
42743;DHT22;28397;44.552;-0.848;2023-07-29T01:41:10;22.50;99.90
42743;DHT22;28397;44.552;-0.848;2023-07-29T01:43:37;22.40;99.90
42743;DHT22;28397;44.552;-0.848;2023-07-29T01:46:12;22.20;99.90
42743;DHT22;28397;44.552;-0.848;2023-07-29T01:48:38;22.10;99.90
42743;DHT22;28397;44.552;-0.848;2023-07-29T01:51:05;21.90;99.90
42743;DHT22;28397;44.552;-0.848;2023-07-29T01:53:31;21.80;99.90
42743;DHT22;28397;44.552;-0.848;2023-07-29T01:55:56;21.70;99.90
42743;DHT22;28397;44.552;-0.848;2023-07-29T01:58:23;21.60;99.90
42743;DHT22;28397;44.552;-0.848;2023-07-29T02:00:48;21.50;99.90
42743;DHT22;28397;44.552;-0.848;2023-07-29T02:03:14;21.50;99.90
42743;DHT22;28397;44.552;-0.848;2023-07-29T02:05:40;21.40;99.90
42743;DHT22;28397;44.552;-0.848;2023-07-29T02:08:07;21.40;99.90
42743;DHT22;28397;44.552;-0.848;2023-07-29T02:10:32;21.40;99.90
42743;DHT22;28397;44.552;-0.848;2023-07-29T02:12:58;21.40;99.90
42743;DHT22;28397;44.552;-0.848;2023-07-29T02:15:24;21.40;99.90
42743;DHT22;28397;44.552;-0.848;2023-07-29T02:17:50;21.30;99.90
42743;DHT22;28397;44.552;-0.848;2023-07-29T02:20:17;21.30;99.90
42743;DHT22;28397;44.552;-0.848;2023-07-29T02:22:42;21.20;99.90
42743;DHT22;28397;44.552;-0.848;2023-07-29T02:25:08;21.20;99.90
42743;DHT22;28397;44.552;-0.848;2023-07-29T02:27:35;21.20;99.90
42743;DHT22;28397;44.552;-0.848;2023-07-29T02:30:01;21.40;99.90
42743;DHT22;28397;44.552;-0.848;2023-07-29T02:32:27;21.40;99.90
42743;DHT22;28397;44.552;-0.848;2023-07-29T02:34:53;21.60;99.90
42743;DHT22;28397;44.552;-0.848;2023-07-29T02:37:18;21.70;99.90
42743;DHT22;28397;44.552;-0.848;2023-07-29T02:39:44;21.80;99.90
42743;DHT22;28397;44.552;-0.848;2023-07-29T02:42:10;21.80;99.90
42743;DHT22;28397;44.552;-0.848;2023-07-29T02:44:36;21.80;99.90
42743;DHT22;28397;44.552;-0.848;2023-07-29T02:47:01;21.80;99.90
42743;DHT22;28397;44.552;-0.848;2023-07-29T02:49:27;21.80;99.90
42743;DHT22;28397;44.552;-0.848;2023-07-29T02:51:53;21.80;99.90
42743;DHT22;28397;44.552;-0.848;2023-07-29T02:54:18;21.80;99.90
42743;DHT22;28397;44.552;-0.848;2023-07-29T02:56:44;21.70;99.90
42743;DHT22;28397;44.552;-0.848;2023-07-29T02:59:10;21.70;99.90
42743;DHT22;28397;44.552;-0.848;2023-07-29T03:01:35;21.80;99.90
42743;DHT22;28397;44.552;-0.848;2023-07-29T03:04:01;21.60;99.90
42743;DHT22;28397;44.552;-0.848;2023-07-29T03:06:27;21.50;99.90
42743;DHT22;28397;44.552;-0.848;2023-07-29T03:08:52;21.40;99.90
42743;DHT22;28397;44.552;-0.848;2023-07-29T03:11:18;21.30;99.90
42743;DHT22;28397;44.552;-0.848;2023-07-29T03:13:44;21.20;99.90
42743;DHT22;28397;44.552;-0.848;2023-07-29T03:16:17;21.10;99.90
42743;DHT22;28397;44.552;-0.848;2023-07-29T03:18:43;21.00;99.90
42743;DHT22;28397;44.552;-0.848;2023-07-29T03:21:10;21.00;99.90
42743;DHT22;28397;44.552;-0.848;2023-07-29T03:23:36;21.00;99.90
42743;DHT22;28397;44.552;-0.848;2023-07-29T03:26:03;21.00;99.90
42743;DHT22;28397;44.552;-0.848;2023-07-29T03:28:37;20.90;99.90
42743;DHT22;28397;44.552;-0.848;2023-07-29T03:31:02;20.90;99.90
42743;DHT22;28397;44.552;-0.848;2023-07-29T03:33:29;20.90;99.90
42743;DHT22;28397;44.552;-0.848;2023-07-29T03:35:55;20.80;99.90
42743;DHT22;28397;44.552;-0.848;2023-07-29T03:38:20;20.80;99.90
42743;DHT22;28397;44.552;-0.848;2023-07-29T03:40:46;20.80;99.90
42743;DHT22;28397;44.552;-0.848;2023-07-29T03:43:12;20.80;99.90
42743;DHT22;28397;44.552;-0.848;2023-07-29T03:45:39;20.90;99.90
42743;DHT22;28397;44.552;-0.848;2023-07-29T03:48:05;21.00;99.90
42743;DHT22;28397;44.552;-0.848;2023-07-29T03:50:35;21.20;99.90
42743;DHT22;28397;44.552;-0.848;2023-07-29T03:53:01;21.30;99.90
42743;DHT22;28397;44.552;-0.848;2023-07-29T03:55:27;21.40;99.90
42743;DHT22;28397;44.552;-0.848;2023-07-29T03:57:56;21.50;99.90
42743;DHT22;28397;44.552;-0.848;2023-07-29T04:00:21;21.60;99.90
42743;DHT22;28397;44.552;-0.848;2023-07-29T04:02:47;21.60;99.90
42743;DHT22;28397;44.552;-0.848;2023-07-29T04:05:13;21.60;99.90
42743;DHT22;28397;44.552;-0.848;2023-07-29T04:07:38;21.60;99.90
42743;DHT22;28397;44.552;-0.848;2023-07-29T04:10:05;21.60;99.90
42743;DHT22;28397;44.552;-0.848;2023-07-29T04:12:31;21.60;99.90
42743;DHT22;28397;44.552;-0.848;2023-07-29T04:14:57;21.70;99.90
42743;DHT22;28397;44.552;-0.848;2023-07-29T04:17:22;21.70;99.90
42743;DHT22;28397;44.552;-0.848;2023-07-29T04:19:48;21.60;99.90
42743;DHT22;28397;44.552;-0.848;2023-07-29T04:22:15;21.50;99.90
42743;DHT22;28397;44.552;-0.848;2023-07-29T04:24:41;21.30;99.90
42743;DHT22;28397;44.552;-0.848;2023-07-29T04:27:06;21.20;99.90
42743;DHT22;28397;44.552;-0.848;2023-07-29T04:29:32;21.10;99.90
42743;DHT22;28397;44.552;-0.848;2023-07-29T04:31:58;21.10;99.90
42743;DHT22;28397;44.552;-0.848;2023-07-29T04:34:24;21.00;99.90
42743;DHT22;28397;44.552;-0.848;2023-07-29T04:36:49;20.90;99.90
42743;DHT22;28397;44.552;-0.848;2023-07-29T04:39:15;20.90;99.90
42743;DHT22;28397;44.552;-0.848;2023-07-29T04:41:41;20.90;99.90
42743;DHT22;28397;44.552;-0.848;2023-07-29T04:44:07;20.80;99.90
42743;DHT22;28397;44.552;-0.848;2023-07-29T04:46:33;20.80;99.90
42743;DHT22;28397;44.552;-0.848;2023-07-29T04:48:58;20.80;99.90
42743;DHT22;28397;44.552;-0.848;2023-07-29T04:51:24;20.80;99.90
42743;DHT22;28397;44.552;-0.848;2023-07-29T04:53:50;20.80;99.90
42743;DHT22;28397;44.552;-0.848;2023-07-29T04:56:16;20.70;99.90
42743;DHT22;28397;44.552;-0.848;2023-07-29T04:58:42;20.70;99.90
42743;DHT22;28397;44.552;-0.848;2023-07-29T05:01:08;20.70;99.90
42743;DHT22;28397;44.552;-0.848;2023-07-29T05:03:33;20.90;99.90
42743;DHT22;28397;44.552;-0.848;2023-07-29T05:05:59;21.00;99.90
42743;DHT22;28397;44.552;-0.848;2023-07-29T05:08:28;21.20;99.90
42743;DHT22;28397;44.552;-0.848;2023-07-29T05:10:54;21.20;99.90
42743;DHT22;28397;44.552;-0.848;2023-07-29T05:13:20;21.30;99.90
42743;DHT22;28397;44.552;-0.848;2023-07-29T05:15:48;21.40;99.90
42743;DHT22;28397;44.552;-0.848;2023-07-29T05:18:14;21.40;99.90
42743;DHT22;28397;44.552;-0.848;2023-07-29T05:20:40;21.60;99.90
42743;DHT22;28397;44.552;-0.848;2023-07-29T05:23:05;21.60;99.90
42743;DHT22;28397;44.552;-0.848;2023-07-29T05:25:31;21.50;99.90
42743;DHT22;28397;44.552;-0.848;2023-07-29T05:27:57;21.50;99.90
42743;DHT22;28397;44.552;-0.848;2023-07-29T05:30:22;21.50;99.90
42743;DHT22;28397;44.552;-0.848;2023-07-29T05:32:48;21.40;99.90
42743;DHT22;28397;44.552;-0.848;2023-07-29T05:35:14;21.60;99.90
42743;DHT22;28397;44.552;-0.848;2023-07-29T05:37:40;21.50;99.90
42743;DHT22;28397;44.552;-0.848;2023-07-29T05:40:06;21.30;99.90
42743;DHT22;28397;44.552;-0.848;2023-07-29T05:42:33;21.20;99.90
42743;DHT22;28397;44.552;-0.848;2023-07-29T05:44:58;21.10;99.90
42743;DHT22;28397;44.552;-0.848;2023-07-29T05:47:24;21.10;99.90
42743;DHT22;28397;44.552;-0.848;2023-07-29T05:49:50;21.10;99.90
42743;DHT22;28397;44.552;-0.848;2023-07-29T05:52:15;21.10;99.90
42743;DHT22;28397;44.552;-0.848;2023-07-29T05:54:41;21.00;99.90
42743;DHT22;28397;44.552;-0.848;2023-07-29T05:57:09;21.00;99.90
42743;DHT22;28397;44.552;-0.848;2023-07-29T05:59:35;21.00;99.90
42743;DHT22;28397;44.552;-0.848;2023-07-29T06:02:00;21.00;99.90
42743;DHT22;28397;44.552;-0.848;2023-07-29T06:04:26;20.90;99.90
42743;DHT22;28397;44.552;-0.848;2023-07-29T06:06:52;21.00;99.90
42743;DHT22;28397;44.552;-0.848;2023-07-29T06:09:18;20.90;99.90
42743;DHT22;28397;44.552;-0.848;2023-07-29T06:11:44;21.00;99.90
42743;DHT22;28397;44.552;-0.848;2023-07-29T06:14:09;21.00;99.90
42743;DHT22;28397;44.552;-0.848;2023-07-29T06:16:35;21.00;99.90
42743;DHT22;28397;44.552;-0.848;2023-07-29T06:19:00;21.10;99.90
42743;DHT22;28397;44.552;-0.848;2023-07-29T06:21:26;21.20;99.90
42743;DHT22;28397;44.552;-0.848;2023-07-29T06:23:52;21.30;99.90
42743;DHT22;28397;44.552;-0.848;2023-07-29T06:26:18;21.60;99.90
42743;DHT22;28397;44.552;-0.848;2023-07-29T06:28:44;21.70;99.90
42743;DHT22;28397;44.552;-0.848;2023-07-29T06:31:09;21.70;99.90
42743;DHT22;28397;44.552;-0.848;2023-07-29T06:33:35;21.80;99.90
42743;DHT22;28397;44.552;-0.848;2023-07-29T06:36:01;21.80;99.90
42743;DHT22;28397;44.552;-0.848;2023-07-29T06:38:27;21.90;99.90
42743;DHT22;28397;44.552;-0.848;2023-07-29T06:40:52;21.80;99.90
42743;DHT22;28397;44.552;-0.848;2023-07-29T06:43:18;21.90;99.90
42743;DHT22;28397;44.552;-0.848;2023-07-29T06:45:44;21.90;99.90
42743;DHT22;28397;44.552;-0.848;2023-07-29T06:48:09;21.90;99.90
42743;DHT22;28397;44.552;-0.848;2023-07-29T06:50:35;21.90;99.90
42743;DHT22;28397;44.552;-0.848;2023-07-29T06:53:01;21.80;99.90
42743;DHT22;28397;44.552;-0.848;2023-07-29T06:55:26;21.70;99.90
42743;DHT22;28397;44.552;-0.848;2023-07-29T06:57:52;21.60;99.90
42743;DHT22;28397;44.552;-0.848;2023-07-29T07:00:18;21.60;99.90
42743;DHT22;28397;44.552;-0.848;2023-07-29T07:02:43;21.50;99.90
42743;DHT22;28397;44.552;-0.848;2023-07-29T07:05:09;21.50;99.90
42743;DHT22;28397;44.552;-0.848;2023-07-29T07:07:35;21.50;99.90
42743;DHT22;28397;44.552;-0.848;2023-07-29T07:10:00;21.50;99.90
42743;DHT22;28397;44.552;-0.848;2023-07-29T07:12:26;21.60;99.90
42743;DHT22;28397;44.552;-0.848;2023-07-29T07:14:52;21.60;99.90
42743;DHT22;28397;44.552;-0.848;2023-07-29T07:17:18;21.60;99.90
42743;DHT22;28397;44.552;-0.848;2023-07-29T07:19:43;21.70;99.90
42743;DHT22;28397;44.552;-0.848;2023-07-29T07:22:09;21.70;99.90
42743;DHT22;28397;44.552;-0.848;2023-07-29T07:24:35;21.80;99.90
42743;DHT22;28397;44.552;-0.848;2023-07-29T07:27:01;21.90;99.90
42743;DHT22;28397;44.552;-0.848;2023-07-29T07:29:27;22.00;99.90
42743;DHT22;28397;44.552;-0.848;2023-07-29T07:31:53;22.10;99.90
42743;DHT22;28397;44.552;-0.848;2023-07-29T07:34:20;22.20;99.90
42743;DHT22;28397;44.552;-0.848;2023-07-29T07:36:46;22.40;99.90
42743;DHT22;28397;44.552;-0.848;2023-07-29T07:39:12;22.50;99.90
42743;DHT22;28397;44.552;-0.848;2023-07-29T07:41:38;22.60;99.90
42743;DHT22;28397;44.552;-0.848;2023-07-29T07:44:04;22.80;99.90
42743;DHT22;28397;44.552;-0.848;2023-07-29T07:46:29;22.80;99.90
42743;DHT22;28397;44.552;-0.848;2023-07-29T07:48:55;22.90;99.90
42743;DHT22;28397;44.552;-0.848;2023-07-29T07:51:21;23.00;99.90
42743;DHT22;28397;44.552;-0.848;2023-07-29T07:53:46;23.10;99.90
42743;DHT22;28397;44.552;-0.848;2023-07-29T07:56:12;23.20;99.90
42743;DHT22;28397;44.552;-0.848;2023-07-29T07:58:38;23.20;99.90
42743;DHT22;28397;44.552;-0.848;2023-07-29T08:01:08;23.30;99.90
42743;DHT22;28397;44.552;-0.848;2023-07-29T08:03:35;23.40;99.90
42743;DHT22;28397;44.552;-0.848;2023-07-29T08:06:01;23.50;99.90
42743;DHT22;28397;44.552;-0.848;2023-07-29T08:08:27;23.50;99.90
42743;DHT22;28397;44.552;-0.848;2023-07-29T08:10:54;23.60;99.90
42743;DHT22;28397;44.552;-0.848;2023-07-29T08:13:21;23.50;99.90
42743;DHT22;28397;44.552;-0.848;2023-07-29T08:15:48;23.50;99.90
42743;DHT22;28397;44.552;-0.848;2023-07-29T08:18:13;23.50;99.90
42743;DHT22;28397;44.552;-0.848;2023-07-29T08:20:39;23.40;99.90
42743;DHT22;28397;44.552;-0.848;2023-07-29T08:23:05;23.50;99.90
42743;DHT22;28397;44.552;-0.848;2023-07-29T08:25:30;23.40;99.90
42743;DHT22;28397;44.552;-0.848;2023-07-29T08:27:56;23.40;99.90
42743;DHT22;28397;44.552;-0.848;2023-07-29T08:30:22;23.40;99.90
42743;DHT22;28397;44.552;-0.848;2023-07-29T08:32:48;23.30;99.90
42743;DHT22;28397;44.552;-0.848;2023-07-29T08:35:13;23.40;99.90
42743;DHT22;28397;44.552;-0.848;2023-07-29T08:37:39;23.30;99.90
42743;DHT22;28397;44.552;-0.848;2023-07-29T08:40:05;23.30;99.90
42743;DHT22;28397;44.552;-0.848;2023-07-29T08:42:32;23.30;99.90
42743;DHT22;28397;44.552;-0.848;2023-07-29T08:45:07;23.30;99.90
42743;DHT22;28397;44.552;-0.848;2023-07-29T08:47:33;23.50;99.90
42743;DHT22;28397;44.552;-0.848;2023-07-29T08:50:01;23.50;99.90
42743;DHT22;28397;44.552;-0.848;2023-07-29T08:52:29;23.50;99.90
42743;DHT22;28397;44.552;-0.848;2023-07-29T08:54:58;23.60;99.90
42743;DHT22;28397;44.552;-0.848;2023-07-29T08:57:24;23.80;99.90
42743;DHT22;28397;44.552;-0.848;2023-07-29T08:59:50;23.90;99.90
42743;DHT22;28397;44.552;-0.848;2023-07-29T09:02:15;24.10;99.90
42743;DHT22;28397;44.552;-0.848;2023-07-29T09:04:42;24.10;99.90
42743;DHT22;28397;44.552;-0.848;2023-07-29T09:07:08;24.20;99.90
42743;DHT22;28397;44.552;-0.848;2023-07-29T09:09:34;24.20;99.90
42743;DHT22;28397;44.552;-0.848;2023-07-29T09:12:00;24.30;99.90
42743;DHT22;28397;44.552;-0.848;2023-07-29T09:14:26;24.40;99.90
42743;DHT22;28397;44.552;-0.848;2023-07-29T09:16:53;24.40;99.90
42743;DHT22;28397;44.552;-0.848;2023-07-29T09:19:19;24.40;99.90
42743;DHT22;28397;44.552;-0.848;2023-07-29T09:21:46;24.50;99.90
42743;DHT22;28397;44.552;-0.848;2023-07-29T09:24:16;24.60;99.90
42743;DHT22;28397;44.552;-0.848;2023-07-29T09:26:49;24.50;99.90
42743;DHT22;28397;44.552;-0.848;2023-07-29T09:29:16;24.50;99.90
42743;DHT22;28397;44.552;-0.848;2023-07-29T09:31:46;24.60;99.90
42743;DHT22;28397;44.552;-0.848;2023-07-29T09:34:15;24.60;99.90
42743;DHT22;28397;44.552;-0.848;2023-07-29T09:36:42;24.60;99.90
42743;DHT22;28397;44.552;-0.848;2023-07-29T09:39:11;24.70;99.90
42743;DHT22;28397;44.552;-0.848;2023-07-29T09:41:38;24.70;99.90
42743;DHT22;28397;44.552;-0.848;2023-07-29T09:44:04;24.60;99.90
42743;DHT22;28397;44.552;-0.848;2023-07-29T09:46:36;24.60;99.90
42743;DHT22;28397;44.552;-0.848;2023-07-29T09:49:06;24.70;99.90
42743;DHT22;28397;44.552;-0.848;2023-07-29T09:51:37;24.70;99.90
42743;DHT22;28397;44.552;-0.848;2023-07-29T09:54:03;24.70;99.90
42743;DHT22;28397;44.552;-0.848;2023-07-29T09:56:29;24.80;99.90
42743;DHT22;28397;44.552;-0.848;2023-07-29T09:58:56;24.80;99.90
42743;DHT22;28397;44.552;-0.848;2023-07-29T10:01:23;25.00;99.90
42743;DHT22;28397;44.552;-0.848;2023-07-29T10:03:49;25.10;99.90
42743;DHT22;28397;44.552;-0.848;2023-07-29T10:06:15;25.10;99.90
42743;DHT22;28397;44.552;-0.848;2023-07-29T10:08:42;25.10;99.90
42743;DHT22;28397;44.552;-0.848;2023-07-29T10:11:10;25.00;99.90
42743;DHT22;28397;44.552;-0.848;2023-07-29T10:13:37;25.00;99.90
42743;DHT22;28397;44.552;-0.848;2023-07-29T10:16:04;25.10;99.90
42743;DHT22;28397;44.552;-0.848;2023-07-29T10:18:31;25.10;99.90
42743;DHT22;28397;44.552;-0.848;2023-07-29T10:20:58;25.20;99.90
42743;DHT22;28397;44.552;-0.848;2023-07-29T10:23:30;25.40;99.90
42743;DHT22;28397;44.552;-0.848;2023-07-29T10:26:05;25.40;99.90
42743;DHT22;28397;44.552;-0.848;2023-07-29T10:28:32;25.50;99.90
42743;DHT22;28397;44.552;-0.848;2023-07-29T10:30:59;25.60;99.90
42743;DHT22;28397;44.552;-0.848;2023-07-29T10:33:25;25.50;99.90
42743;DHT22;28397;44.552;-0.848;2023-07-29T10:35:53;25.50;99.90
42743;DHT22;28397;44.552;-0.848;2023-07-29T10:38:21;25.70;99.90
42743;DHT22;28397;44.552;-0.848;2023-07-29T10:40:53;25.70;99.90
42743;DHT22;28397;44.552;-0.848;2023-07-29T10:43:34;25.70;99.90
42743;DHT22;28397;44.552;-0.848;2023-07-29T10:46:22;25.90;99.90
42743;DHT22;28397;44.552;-0.848;2023-07-29T10:48:52;25.80;99.90
42743;DHT22;28397;44.552;-0.848;2023-07-29T10:51:28;25.80;99.90
42743;DHT22;28397;44.552;-0.848;2023-07-29T10:54:04;26.00;99.90
42743;DHT22;28397;44.552;-0.848;2023-07-29T10:56:36;26.00;99.90
42743;DHT22;28397;44.552;-0.848;2023-07-29T11:01:39;26.00;99.90
42743;DHT22;28397;44.552;-0.848;2023-07-29T11:15:18;25.80;99.90
42743;DHT22;28397;44.552;-0.848;2023-07-29T11:17:48;25.80;99.90
42743;DHT22;28397;44.552;-0.848;2023-07-29T11:20:16;25.80;99.90
42743;DHT22;28397;44.552;-0.848;2023-07-29T11:22:42;25.90;99.90
42743;DHT22;28397;44.552;-0.848;2023-07-29T11:25:10;26.00;99.90
42743;DHT22;28397;44.552;-0.848;2023-07-29T11:27:37;26.00;99.90
42743;DHT22;28397;44.552;-0.848;2023-07-29T11:30:09;26.00;99.90
42743;DHT22;28397;44.552;-0.848;2023-07-29T11:32:36;25.90;99.90
42743;DHT22;28397;44.552;-0.848;2023-07-29T11:35:15;25.80;99.90
42743;DHT22;28397;44.552;-0.848;2023-07-29T11:37:46;25.80;99.90
42743;DHT22;28397;44.552;-0.848;2023-07-29T11:40:16;25.90;99.90
42743;DHT22;28397;44.552;-0.848;2023-07-29T11:42:43;25.90;99.90
42743;DHT22;28397;44.552;-0.848;2023-07-29T11:45:09;26.10;99.90
42743;DHT22;28397;44.552;-0.848;2023-07-29T11:47:35;26.20;99.90
42743;DHT22;28397;44.552;-0.848;2023-07-29T11:50:03;26.30;99.90
42743;DHT22;28397;44.552;-0.848;2023-07-29T11:52:31;26.30;99.90
42743;DHT22;28397;44.552;-0.848;2023-07-29T11:54:58;26.30;99.90
42743;DHT22;28397;44.552;-0.848;2023-07-29T11:57:24;26.50;99.90
42743;DHT22;28397;44.552;-0.848;2023-07-29T11:59:50;26.80;99.90
42743;DHT22;28397;44.552;-0.848;2023-07-29T12:02:17;27.10;99.90
42743;DHT22;28397;44.552;-0.848;2023-07-29T12:04:46;27.40;99.90
42743;DHT22;28397;44.552;-0.848;2023-07-29T12:07:13;27.50;99.90
42743;DHT22;28397;44.552;-0.848;2023-07-29T12:09:41;27.60;99.90
42743;DHT22;28397;44.552;-0.848;2023-07-29T12:12:07;27.40;99.90
42743;DHT22;28397;44.552;-0.848;2023-07-29T12:14:34;27.20;99.90
42743;DHT22;28397;44.552;-0.848;2023-07-29T12:17:01;27.30;99.90
42743;DHT22;28397;44.552;-0.848;2023-07-29T12:19:35;27.30;99.90
42743;DHT22;28397;44.552;-0.848;2023-07-29T12:22:02;27.10;99.90
42743;DHT22;28397;44.552;-0.848;2023-07-29T12:24:34;27.00;99.90
42743;DHT22;28397;44.552;-0.848;2023-07-29T12:27:00;26.90;99.90
42743;DHT22;28397;44.552;-0.848;2023-07-29T12:29:27;27.10;99.90
42743;DHT22;28397;44.552;-0.848;2023-07-29T12:32:03;27.20;99.90
42743;DHT22;28397;44.552;-0.848;2023-07-29T12:34:30;27.10;99.90
42743;DHT22;28397;44.552;-0.848;2023-07-29T12:36:58;27.00;99.90
42743;DHT22;28397;44.552;-0.848;2023-07-29T12:39:28;27.00;99.90
42743;DHT22;28397;44.552;-0.848;2023-07-29T12:41:56;27.10;99.90
42743;DHT22;28397;44.552;-0.848;2023-07-29T12:44:32;27.10;99.90
42743;DHT22;28397;44.552;-0.848;2023-07-29T12:46:58;26.90;99.90
42743;DHT22;28397;44.552;-0.848;2023-07-29T12:49:24;26.80;99.90
42743;DHT22;28397;44.552;-0.848;2023-07-29T12:51:50;26.70;99.90
42743;DHT22;28397;44.552;-0.848;2023-07-29T12:54:16;26.60;99.90
42743;DHT22;28397;44.552;-0.848;2023-07-29T12:56:41;26.30;99.90
42743;DHT22;28397;44.552;-0.848;2023-07-29T12:59:07;26.30;99.90
42743;DHT22;28397;44.552;-0.848;2023-07-29T13:01:32;26.20;99.90
42743;DHT22;28397;44.552;-0.848;2023-07-29T13:03:58;26.10;99.90
42743;DHT22;28397;44.552;-0.848;2023-07-29T13:06:24;25.80;99.90
42743;DHT22;28397;44.552;-0.848;2023-07-29T13:08:49;25.70;99.90
42743;DHT22;28397;44.552;-0.848;2023-07-29T13:11:16;25.60;99.90
42743;DHT22;28397;44.552;-0.848;2023-07-29T13:13:42;25.30;99.90
42743;DHT22;28397;44.552;-0.848;2023-07-29T13:16:07;24.90;99.90
42743;DHT22;28397;44.552;-0.848;2023-07-29T13:18:33;24.50;99.90
42743;DHT22;28397;44.552;-0.848;2023-07-29T13:20:59;24.30;99.90
42743;DHT22;28397;44.552;-0.848;2023-07-29T13:23:26;24.10;99.90
42743;DHT22;28397;44.552;-0.848;2023-07-29T13:25:52;24.20;99.90
42743;DHT22;28397;44.552;-0.848;2023-07-29T13:28:17;24.30;99.90
42743;DHT22;28397;44.552;-0.848;2023-07-29T13:30:44;24.40;99.90
42743;DHT22;28397;44.552;-0.848;2023-07-29T13:33:10;24.60;99.90
42743;DHT22;28397;44.552;-0.848;2023-07-29T13:35:36;24.90;99.90
42743;DHT22;28397;44.552;-0.848;2023-07-29T13:38:02;25.00;99.90
42743;DHT22;28397;44.552;-0.848;2023-07-29T13:40:28;25.10;99.90
42743;DHT22;28397;44.552;-0.848;2023-07-29T13:42:54;25.10;99.90
42743;DHT22;28397;44.552;-0.848;2023-07-29T13:45:20;25.40;99.90
42743;DHT22;28397;44.552;-0.848;2023-07-29T13:47:47;25.30;99.90
42743;DHT22;28397;44.552;-0.848;2023-07-29T13:50:13;25.20;99.90
42743;DHT22;28397;44.552;-0.848;2023-07-29T13:52:39;25.10;99.90
42743;DHT22;28397;44.552;-0.848;2023-07-29T13:55:05;24.80;99.90
42743;DHT22;28397;44.552;-0.848;2023-07-29T13:57:31;24.70;99.90
42743;DHT22;28397;44.552;-0.848;2023-07-29T13:59:57;24.80;99.90
42743;DHT22;28397;44.552;-0.848;2023-07-29T14:02:23;25.00;99.90
42743;DHT22;28397;44.552;-0.848;2023-07-29T14:04:49;24.90;99.90
42743;DHT22;28397;44.552;-0.848;2023-07-29T14:07:14;24.90;99.90
42743;DHT22;28397;44.552;-0.848;2023-07-29T14:09:40;24.90;99.90
42743;DHT22;28397;44.552;-0.848;2023-07-29T14:12:08;24.90;99.90
42743;DHT22;28397;44.552;-0.848;2023-07-29T14:14:38;24.80;99.90
42743;DHT22;28397;44.552;-0.848;2023-07-29T14:17:03;24.80;99.90
42743;DHT22;28397;44.552;-0.848;2023-07-29T14:19:29;24.70;99.90
42743;DHT22;28397;44.552;-0.848;2023-07-29T14:21:55;24.50;99.90
42743;DHT22;28397;44.552;-0.848;2023-07-29T14:24:21;24.60;99.90
42743;DHT22;28397;44.552;-0.848;2023-07-29T14:26:48;24.60;99.90
42743;DHT22;28397;44.552;-0.848;2023-07-29T14:29:13;24.70;99.90
42743;DHT22;28397;44.552;-0.848;2023-07-29T14:31:39;24.90;99.90
42743;DHT22;28397;44.552;-0.848;2023-07-29T14:34:05;25.00;99.90
42743;DHT22;28397;44.552;-0.848;2023-07-29T14:36:30;25.00;99.90
42743;DHT22;28397;44.552;-0.848;2023-07-29T14:38:56;25.20;99.90
42743;DHT22;28397;44.552;-0.848;2023-07-29T14:41:22;25.20;99.90
42743;DHT22;28397;44.552;-0.848;2023-07-29T14:43:47;25.20;99.90
42743;DHT22;28397;44.552;-0.848;2023-07-29T14:46:13;25.20;99.90
42743;DHT22;28397;44.552;-0.848;2023-07-29T14:48:39;25.10;99.90
42743;DHT22;28397;44.552;-0.848;2023-07-29T14:51:04;25.20;99.90
42743;DHT22;28397;44.552;-0.848;2023-07-29T14:53:30;25.20;99.90
42743;DHT22;28397;44.552;-0.848;2023-07-29T14:55:56;25.00;99.90
42743;DHT22;28397;44.552;-0.848;2023-07-29T14:58:21;24.80;99.90
42743;DHT22;28397;44.552;-0.848;2023-07-29T15:00:48;24.80;99.90
42743;DHT22;28397;44.552;-0.848;2023-07-29T15:03:14;24.70;99.90
42743;DHT22;28397;44.552;-0.848;2023-07-29T15:05:39;24.70;99.90
42743;DHT22;28397;44.552;-0.848;2023-07-29T15:08:06;24.50;99.90
42743;DHT22;28397;44.552;-0.848;2023-07-29T15:10:31;24.40;99.90
42743;DHT22;28397;44.552;-0.848;2023-07-29T15:12:57;24.30;99.90
42743;DHT22;28397;44.552;-0.848;2023-07-29T15:15:23;24.00;99.90
42743;DHT22;28397;44.552;-0.848;2023-07-29T15:17:48;24.00;99.90
42743;DHT22;28397;44.552;-0.848;2023-07-29T15:20:14;24.00;99.90
42743;DHT22;28397;44.552;-0.848;2023-07-29T15:22:40;23.80;99.90
42743;DHT22;28397;44.552;-0.848;2023-07-29T15:25:07;23.80;99.90
42743;DHT22;28397;44.552;-0.848;2023-07-29T15:27:33;23.90;99.90
42743;DHT22;28397;44.552;-0.848;2023-07-29T15:29:59;23.80;99.90
42743;DHT22;28397;44.552;-0.848;2023-07-29T15:32:24;23.80;99.90